createdAt,value
2023-05-18T00:00:29.265Z,102826.19
2023-05-18T00:02:58.161Z,102827.34
2023-05-18T00:05:27.564Z,102830.44
2023-05-18T00:07:57.378Z,102830.44
2023-05-18T00:10:25.778Z,102829.19
2023-05-18T00:12:53.941Z,102829.31
2023-05-18T00:15:22.352Z,102827.53
2023-05-18T00:17:53.504Z,102823.19
2023-05-18T00:20:22.373Z,102814.53
2023-05-18T00:22:50.996Z,102815.38
2023-05-18T00:25:20.866Z,102815.81
2023-05-18T00:27:50.225Z,102809.84
2023-05-18T00:30:18.710Z,102804.66
2023-05-18T00:32:46.987Z,102811.22
2023-05-18T00:35:16.176Z,102807.22
2023-05-18T00:37:44.309Z,102804.13
2023-05-18T00:40:13.707Z,102800.81
2023-05-18T00:42:43.516Z,102795.78
2023-05-18T00:45:12.439Z,102800.69
2023-05-18T00:47:40.749Z,102804.19
2023-05-18T00:50:09.757Z,102784.91
2023-05-18T00:52:38.672Z,102794.31
2023-05-18T00:55:08.388Z,102804.38
2023-05-18T00:57:38.542Z,102795.16
2023-05-18T01:00:10.946Z,102789.16
2023-05-18T01:02:43.118Z,102796.16
2023-05-18T01:05:12.346Z,102790.97
2023-05-18T01:07:42.687Z,102803.72
2023-05-18T01:10:13.112Z,102799.09
2023-05-18T01:12:47.223Z,102799.91
2023-05-18T01:15:19.623Z,102803.41
2023-05-18T01:18:05.458Z,102801.59
2023-05-18T01:20:39.211Z,102803.25
2023-05-18T01:23:46.141Z,102808.56
2023-05-18T01:26:18.036Z,102803.25
2023-05-18T01:28:48.209Z,102798.50
2023-05-18T01:31:17.366Z,102808.56
2023-05-18T01:33:46.110Z,102798.69
2023-05-18T01:36:14.590Z,102806.09
2023-05-18T01:38:44.292Z,102799.94
2023-05-18T01:41:29.480Z,102798.84
2023-05-18T01:44:03.048Z,102801.34
2023-05-18T01:46:39.455Z,102803.28
2023-05-18T01:49:15.393Z,102801.50
2023-05-18T01:51:47.404Z,102802.59
2023-05-18T01:54:20.328Z,102800.94
2023-05-18T01:56:52.129Z,102799.50
2023-05-18T01:59:24.297Z,102799.25
2023-05-18T02:01:59.662Z,102795.75
2023-05-18T02:04:28.282Z,102791.72
2023-05-18T02:06:57.145Z,102793.81
2023-05-18T02:09:25.485Z,102797.72
2023-05-18T02:11:55.256Z,102797.88
2023-05-18T02:14:23.459Z,102793.66
2023-05-18T02:16:53.416Z,102799.81
2023-05-18T02:19:21.995Z,102792.69
2023-05-18T02:21:50.383Z,102801.22
2023-05-18T02:24:19.103Z,102795.22
2023-05-18T02:26:47.370Z,102792.44
2023-05-18T02:29:17.006Z,102792.59
2023-05-18T02:31:45.223Z,102790.47
2023-05-18T02:34:15.589Z,102794.09
2023-05-18T02:36:43.884Z,102787.81
2023-05-18T02:39:12.049Z,102790.19
2023-05-18T02:41:40.568Z,102791.88
2023-05-18T02:44:08.821Z,102790.19
2023-05-18T02:46:38.635Z,102789.38
2023-05-18T02:49:06.968Z,102797.16
2023-05-18T02:51:35.127Z,102786.56
2023-05-18T02:54:03.679Z,102790.88
2023-05-18T02:56:32.934Z,102789.38
2023-05-18T02:59:01.357Z,102791.47
2023-05-18T03:01:29.823Z,102788.53
2023-05-18T03:03:59.712Z,102791.31
2023-05-18T03:06:30.516Z,102790.78
2023-05-18T03:08:59.013Z,102794.09
2023-05-18T03:11:27.575Z,102782.66
2023-05-18T03:13:56.096Z,102789.63
2023-05-18T03:16:28.365Z,102782.53
2023-05-18T03:18:59.389Z,102784.19
2023-05-18T03:21:36.147Z,102786.84
2023-05-18T03:24:05.078Z,102777.94
2023-05-18T03:26:33.492Z,102785.72
2023-05-18T03:29:02.198Z,102785.16
2023-05-18T03:31:30.770Z,102780.84
2023-05-18T03:33:58.929Z,102780.69
2023-05-18T03:36:29.174Z,102786.16
2023-05-18T03:38:57.604Z,102792.44
2023-05-18T03:41:25.878Z,102790.34
2023-05-18T03:43:54.109Z,102786.72
2023-05-18T03:46:22.450Z,102785.16
2023-05-18T03:48:50.787Z,102781.41
2023-05-18T03:51:18.976Z,102785.72
2023-05-18T03:53:48.602Z,102776.78
2023-05-18T03:56:16.923Z,102786.56
2023-05-18T03:58:45.727Z,102782.25
2023-05-18T04:01:14.073Z,102779.88
2023-05-18T04:03:42.892Z,102784.63
2023-05-18T04:06:11.912Z,102788.56
2023-05-18T04:08:42.275Z,102784.34
2023-05-18T04:11:13.198Z,102782.84
2023-05-18T04:13:42.066Z,102776.66
2023-05-18T04:16:13.681Z,102773.59
2023-05-18T04:18:43.194Z,102781.56
2023-05-18T04:21:12.012Z,102772.50
2023-05-18T04:23:41.027Z,102779.63
2023-05-18T04:26:11.080Z,102770.69
2023-05-18T04:28:40.701Z,102769.00
2023-05-18T04:31:08.922Z,102762.72
2023-05-18T04:33:38.556Z,102766.47
2023-05-18T04:36:07.527Z,102766.47
2023-05-18T04:38:35.785Z,102763.16
2023-05-18T04:41:06.715Z,102762.88
2023-05-18T04:43:36.578Z,102760.34
2023-05-18T04:46:07.431Z,102766.06
2023-05-18T04:48:36.442Z,102767.88
2023-05-18T04:51:05.063Z,102759.66
2023-05-18T04:53:33.795Z,102767.63
2023-05-18T04:56:03.171Z,102770.28
2023-05-18T04:58:31.779Z,102765.97
2023-05-18T05:01:00.134Z,102770.28
2023-05-18T05:03:29.940Z,102764.56
2023-05-18T05:05:58.329Z,102777.09
2023-05-18T05:08:26.584Z,102761.47
2023-05-18T05:10:54.933Z,102774.72
2023-05-18T05:13:23.214Z,102770.00
2023-05-18T05:15:51.832Z,102777.13
2023-05-18T05:18:20.538Z,102779.47
2023-05-18T05:20:51.884Z,102784.63
2023-05-18T05:23:20.189Z,102780.03
2023-05-18T05:25:48.558Z,102779.19
2023-05-18T05:28:16.797Z,102774.56
2023-05-18T05:30:45.229Z,102779.88
2023-05-18T05:33:13.617Z,102775.97
2023-05-18T05:35:41.826Z,102777.19
2023-05-18T05:38:11.671Z,102779.44
2023-05-18T05:40:40.097Z,102772.84
2023-05-18T05:43:08.324Z,102785.84
2023-05-18T05:45:36.853Z,102779.28
2023-05-18T05:48:05.354Z,102783.47
2023-05-18T05:50:33.957Z,102785.69
2023-05-18T05:53:02.147Z,102781.78
2023-05-18T05:55:32.173Z,102785.16
2023-05-18T05:58:00.612Z,102795.16
2023-05-18T06:00:29.203Z,102790.25
2023-05-18T06:02:58.924Z,102786.19
2023-05-18T06:05:27.363Z,102787.72
2023-05-18T06:07:55.583Z,102792.06
2023-05-18T06:10:23.909Z,102795.25
2023-05-18T06:12:53.598Z,102791.19
2023-05-18T06:15:21.798Z,102787.09
2023-05-18T06:17:50.115Z,102794.22
2023-05-18T06:20:18.465Z,102790.16
2023-05-18T06:22:47.052Z,102799.34
2023-05-18T06:25:15.995Z,102795.84
2023-05-18T06:27:44.550Z,102795.28
2023-05-18T06:30:14.884Z,102800.75
2023-05-18T06:32:43.135Z,102803.97
2023-05-18T06:35:13.054Z,102790.84
2023-05-18T06:37:41.362Z,102805.78
2023-05-18T06:40:10.784Z,102802.44
2023-05-18T06:42:39.137Z,102804.81
2023-05-18T06:45:08.638Z,102806.78
2023-05-18T06:47:38.925Z,102810.50
2023-05-18T06:50:07.994Z,102805.34
2023-05-18T06:52:36.345Z,102806.72
2023-05-18T06:55:05.556Z,102812.88
2023-05-18T06:57:34.222Z,102811.44
2023-05-18T07:00:02.818Z,102812.00
2023-05-18T07:02:31.761Z,102805.53
2023-05-18T07:05:01.693Z,102807.34
2023-05-18T07:07:29.914Z,102798.41
2023-05-18T07:09:59.064Z,102807.91
2023-05-18T07:12:28.682Z,102805.66
2023-05-18T07:14:56.977Z,102807.03
2023-05-18T07:17:25.208Z,102814.16
2023-05-18T07:19:53.464Z,102820.59
2023-05-18T07:22:23.257Z,102821.13
2023-05-18T07:24:51.582Z,102818.03
2023-05-18T07:27:19.806Z,102808.47
2023-05-18T07:29:48.428Z,102821.75
2023-05-18T07:32:16.764Z,102823.06
2023-05-18T07:34:46.800Z,102821.06
2023-05-18T07:37:15.230Z,102817.75
2023-05-18T07:39:44.990Z,102820.63
2023-05-18T07:42:13.137Z,102824.94
2023-05-18T07:44:41.544Z,102826.16
2023-05-18T07:47:10.010Z,102829.66
2023-05-18T07:49:39.260Z,102819.34
2023-05-18T07:52:08.838Z,102832.75
2023-05-18T07:54:37.173Z,102836.03
2023-05-18T07:57:07.097Z,102835.34
2023-05-18T07:59:35.300Z,102836.84
2023-05-18T08:02:03.689Z,102834.91
2023-05-18T08:04:32.159Z,102825.78
2023-05-18T08:07:01.098Z,102827.44
2023-05-18T08:09:29.435Z,102829.09
2023-05-18T08:11:58.747Z,102833.81
2023-05-18T08:14:28.357Z,102836.56
2023-05-18T08:16:56.747Z,102837.56
2023-05-18T08:19:26.842Z,102835.41
2023-05-18T08:21:55.080Z,102827.53
2023-05-18T08:24:23.279Z,102840.38
2023-05-18T08:26:52.086Z,102842.88
2023-05-18T08:29:20.304Z,102843.03
2023-05-18T08:31:50.074Z,102846.59
2023-05-18T08:34:18.648Z,102843.31
2023-05-18T08:36:47.298Z,102850.00
2023-05-18T08:39:15.773Z,102846.06
2023-05-18T08:41:51.886Z,102839.13
2023-05-18T08:44:23.493Z,102849.84
2023-05-18T08:46:53.800Z,102848.53
2023-05-18T08:49:24.888Z,102847.91
2023-05-18T08:51:57.303Z,102845.63
2023-05-18T08:54:25.892Z,102843.72
2023-05-18T08:56:55.365Z,102831.44
2023-05-18T08:59:25.986Z,102837.53
2023-05-18T09:01:56.113Z,102835.97
2023-05-18T09:04:25.897Z,102830.19
2023-05-18T09:06:56.519Z,102820.59
2023-05-18T09:09:26.647Z,102822.28
2023-05-18T09:11:57.565Z,102819.69
2023-05-18T09:14:26.973Z,102814.38
2023-05-18T09:16:59.921Z,102818.97
2023-05-18T09:19:28.681Z,102814.47
2023-05-18T09:21:57.112Z,102804.16
2023-05-18T09:24:25.446Z,102818.00
2023-05-18T09:26:54.158Z,102808.47
2023-05-18T09:29:24.334Z,102800.94
2023-05-18T09:31:54.468Z,102812.94
2023-05-18T09:34:24.796Z,102812.91
2023-05-18T09:36:54.167Z,102807.91
2023-05-18T09:39:22.439Z,102811.38
2023-05-18T09:41:58.335Z,102801.50
2023-05-18T09:44:32.924Z,102806.97
2023-05-18T09:47:01.817Z,102805.00
2023-05-18T09:49:32.353Z,102807.03
2023-05-18T09:52:01.200Z,102805.22
2023-05-18T09:54:30.115Z,102816.75
2023-05-18T09:57:09.534Z,102821.56
2023-05-18T09:59:39.402Z,102818.56
2023-05-18T10:02:09.129Z,102806.16
2023-05-18T10:04:40.072Z,102809.53
2023-05-18T10:07:13.609Z,102802.84
2023-05-18T10:09:42.780Z,102794.47
2023-05-18T10:12:14.949Z,102805.50
2023-05-18T10:14:44.422Z,102793.94
2023-05-18T10:17:16.406Z,102792.59
2023-05-18T10:19:49.309Z,102803.56
2023-05-18T10:22:19.701Z,102796.44
2023-05-18T10:24:53.136Z,102795.50
2023-05-18T10:27:28.191Z,102798.06
2023-05-18T10:29:59.767Z,102793.66
2023-05-18T10:32:31.095Z,102781.97
2023-05-18T10:35:01.668Z,102782.94
2023-05-18T10:37:31.962Z,102789.19
2023-05-18T10:40:03.312Z,102786.63
2023-05-18T10:42:32.202Z,102785.78
2023-05-18T10:45:01.932Z,102788.19
2023-05-18T10:47:30.787Z,102791.94
2023-05-18T10:50:02.775Z,102793.94
2023-05-18T10:52:34.078Z,102790.72
2023-05-18T10:55:02.708Z,102790.06
2023-05-18T10:57:36.563Z,102785.75
2023-05-18T11:00:09.527Z,102792.84
2023-05-18T11:02:42.843Z,102787.22
2023-05-18T11:05:14.025Z,102783.69
2023-05-18T11:07:47.006Z,102786.06
2023-05-18T11:10:15.726Z,102788.53
2023-05-18T11:12:44.441Z,102793.66
2023-05-18T11:15:13.110Z,102793.19
2023-05-18T11:17:41.467Z,102793.88
2023-05-18T11:20:17.568Z,102793.84
2023-05-18T11:22:51.586Z,102798.38
2023-05-18T11:25:39.934Z,102797.91
2023-05-18T11:28:10.254Z,102797.56
2023-05-18T11:30:52.439Z,102802.63
2023-05-18T11:33:27.045Z,102802.63
2023-05-18T11:36:02.903Z,102792.63
2023-05-18T11:38:52.699Z,102794.97
2023-05-18T11:41:44.377Z,102794.91
2023-05-18T11:44:18.777Z,102793.84
2023-05-18T11:46:55.065Z,102804.53
2023-05-18T11:49:25.377Z,102800.88
2023-05-18T11:52:05.616Z,102804.53
2023-05-18T11:54:43.644Z,102801.13
2023-05-18T11:57:12.416Z,102798.59
2023-05-18T11:59:42.862Z,102799.81
2023-05-18T12:02:13.415Z,102789.47
2023-05-18T12:04:46.730Z,102796.63
2023-05-18T12:07:16.817Z,102786.84
2023-05-18T12:09:47.214Z,102783.28
2023-05-18T12:12:20.129Z,102781.44
2023-05-18T12:14:55.781Z,102777.72
2023-05-18T12:17:24.589Z,102775.59
2023-05-18T12:19:53.008Z,102768.41
2023-05-18T12:22:22.749Z,102762.84
2023-05-18T12:24:53.055Z,102764.41
2023-05-18T12:27:23.108Z,102762.28
2023-05-18T12:29:51.396Z,102763.53
2023-05-18T12:32:21.209Z,102764.34
2023-05-18T12:34:49.494Z,102760.72
2023-05-18T12:37:18.097Z,102758.84
2023-05-18T12:39:53.500Z,102755.91
2023-05-18T12:42:22.900Z,102756.72
2023-05-18T12:44:51.906Z,102754.44
2023-05-18T12:47:20.211Z,102752.28
2023-05-18T12:49:50.721Z,102755.53
2023-05-18T12:52:18.879Z,102752.34
2023-05-18T12:55:00.128Z,102746.41
2023-05-18T12:57:31.146Z,102749.88
2023-05-18T12:59:59.774Z,102742.84
2023-05-18T13:02:29.913Z,102743.84
2023-05-18T13:05:06.494Z,102736.97
2023-05-18T13:07:37.506Z,102731.59
2023-05-18T13:10:12.790Z,102729.09
2023-05-18T13:12:43.944Z,102731.09
2023-05-18T13:15:17.336Z,102737.63
2023-05-18T13:18:06.970Z,102732.97
2023-05-18T13:20:37.955Z,102731.72
2023-05-18T13:23:09.774Z,102734.84
2023-05-18T13:25:39.596Z,102729.22
2023-05-18T13:28:10.577Z,102733.53
2023-05-18T13:30:42.456Z,102736.44
2023-05-18T13:33:12.325Z,102734.97
2023-05-18T13:35:42.955Z,102732.47
2023-05-18T13:38:11.318Z,102727.88
2023-05-18T13:40:41.773Z,102733.72
2023-05-18T13:43:12.793Z,102735.75
2023-05-18T13:45:42.259Z,102728.28
2023-05-18T13:48:11.222Z,102730.94
2023-05-18T13:50:40.302Z,102737.00
2023-05-18T13:53:08.606Z,102733.63
2023-05-18T13:55:37.117Z,102736.06
2023-05-18T13:58:06.920Z,102734.72
2023-05-18T14:00:36.675Z,102730.91
2023-05-18T14:03:06.378Z,102724.78
2023-05-18T14:05:34.977Z,102732.38
2023-05-18T14:08:03.275Z,102731.72
2023-05-18T14:10:31.873Z,102723.03
2023-05-18T14:13:00.293Z,102726.19
2023-05-18T14:15:29.986Z,102724.78
2023-05-18T14:17:58.219Z,102726.22
2023-05-18T14:20:26.482Z,102735.59
2023-05-18T14:22:54.836Z,102735.34
2023-05-18T14:25:23.085Z,102727.63
2023-05-18T14:27:51.362Z,102733.00
2023-05-18T14:30:19.771Z,102721.81
2023-05-18T14:32:49.432Z,102722.53
2023-05-18T14:35:17.716Z,102718.69
2023-05-18T14:37:46.023Z,102718.28
2023-05-18T14:40:14.525Z,102721.00
2023-05-18T14:42:42.692Z,102719.97
2023-05-18T14:45:11.891Z,102717.63
2023-05-18T14:47:40.261Z,102712.56
2023-05-18T14:50:11.204Z,102709.72
2023-05-18T14:52:39.775Z,102710.50
2023-05-18T14:55:08.634Z,102708.94
2023-05-18T14:57:36.849Z,102716.31
2023-05-18T15:00:05.924Z,102714.50
2023-05-18T15:02:34.293Z,102715.31
2023-05-18T15:05:02.613Z,102717.72
2023-05-18T15:07:32.391Z,102711.88
2023-05-18T15:10:00.636Z,102706.59
2023-05-18T15:12:28.735Z,102711.31
2023-05-18T15:15:01.212Z,102710.59
2023-05-18T15:17:29.517Z,102710.59
2023-05-18T15:19:57.897Z,102705.88
2023-05-18T15:22:26.209Z,102709.91
2023-05-18T15:24:55.731Z,102709.63
2023-05-18T15:27:23.940Z,102716.25
2023-05-18T15:29:52.259Z,102706.09
2023-05-18T15:32:20.543Z,102712.47
2023-05-18T15:34:48.816Z,102719.81
2023-05-18T15:37:16.981Z,102716.69
2023-05-18T15:39:45.399Z,102714.03
2023-05-18T15:42:15.209Z,102709.97
2023-05-18T15:44:43.388Z,102706.38
2023-05-18T15:47:11.721Z,102716.81
2023-05-18T15:49:39.970Z,102714.19
2023-05-18T15:52:09.143Z,102716.56
2023-05-18T15:54:37.566Z,102718.28
2023-05-18T15:57:06.384Z,102711.75
2023-05-18T15:59:35.970Z,102706.53
2023-05-18T16:02:04.248Z,102719.13
2023-05-18T16:04:32.459Z,102709.97
2023-05-18T16:07:02.667Z,102713.16
2023-05-18T16:09:30.813Z,102706.47
2023-05-18T16:11:59.094Z,102701.75
2023-05-18T16:14:27.371Z,102713.75
2023-05-18T16:16:57.123Z,102710.22
2023-05-18T16:19:25.563Z,102711.03
2023-05-18T16:21:53.937Z,102709.16
2023-05-18T16:24:22.709Z,102711.63
2023-05-18T16:26:51.769Z,102715.13
2023-05-18T16:29:20.150Z,102710.94
2023-05-18T16:31:48.472Z,102710.94
2023-05-18T16:34:18.244Z,102711.91
2023-05-18T16:36:46.497Z,102714.38
2023-05-18T16:39:14.877Z,102717.25
2023-05-18T16:41:43.267Z,102713.91
2023-05-18T16:44:11.549Z,102722.63
2023-05-18T16:46:39.893Z,102717.28
2023-05-18T16:49:08.177Z,102719.94
2023-05-18T16:51:37.802Z,102718.63
2023-05-18T16:54:06.979Z,102723.50
2023-05-18T16:56:35.968Z,102710.66
2023-05-18T16:59:04.710Z,102718.88
2023-05-18T17:01:33.441Z,102721.25
2023-05-18T17:04:01.705Z,102714.41
2023-05-18T17:06:30.088Z,102710.75
2023-05-18T17:08:59.644Z,102715.78
2023-05-18T17:11:28.126Z,102702.72
2023-05-18T17:13:57.746Z,102701.72
2023-05-18T17:16:27.005Z,102703.56
2023-05-18T17:18:56.407Z,102695.34
2023-05-18T17:21:26.829Z,102704.38
2023-05-18T17:23:55.249Z,102705.75
2023-05-18T17:26:26.038Z,102698.50
2023-05-18T17:28:54.367Z,102699.63
2023-05-18T17:31:22.718Z,102700.66
2023-05-18T17:33:51.152Z,102698.59
2023-05-18T17:36:19.434Z,102694.56
2023-05-18T17:38:47.990Z,102703.75
2023-05-18T17:41:16.448Z,102705.44
2023-05-18T17:43:46.104Z,102704.22
2023-05-18T17:46:14.234Z,102706.88
2023-05-18T17:48:42.573Z,102700.06
2023-05-18T17:51:10.751Z,102701.00
2023-05-18T17:53:42.640Z,102702.84
2023-05-18T17:56:12.385Z,102704.31
2023-05-18T17:58:40.678Z,102710.88
2023-05-18T18:01:12.374Z,102702.84
2023-05-18T18:03:41.765Z,102701.19
2023-05-18T18:06:10.078Z,102700.53
2023-05-18T18:08:38.492Z,102692.38
2023-05-18T18:11:09.073Z,102695.94
2023-05-18T18:13:45.634Z,102698.91
2023-05-18T18:16:15.504Z,102699.28
2023-05-18T18:18:43.848Z,102703.31
2023-05-18T18:21:12.348Z,102696.84
2023-05-18T18:23:41.292Z,102706.03
2023-05-18T18:26:09.856Z,102708.75
2023-05-18T18:28:38.259Z,102711.22
2023-05-18T18:31:06.553Z,102711.38
2023-05-18T18:33:36.223Z,102710.88
2023-05-18T18:36:05.899Z,102712.28
2023-05-18T18:38:34.386Z,102712.31
2023-05-18T18:41:05.079Z,102717.16
2023-05-18T18:43:35.259Z,102721.19
2023-05-18T18:46:04.426Z,102727.25
2023-05-18T18:48:32.603Z,102729.94
2023-05-18T18:51:02.309Z,102733.81
2023-05-18T18:53:30.593Z,102728.97
2023-05-18T18:55:59.780Z,102727.66
2023-05-18T18:58:28.337Z,102731.50
2023-05-18T19:00:56.770Z,102735.53
2023-05-18T19:03:26.147Z,102740.88
2023-05-18T19:05:54.392Z,102736.19
2023-05-18T19:08:24.193Z,102741.53
2023-05-18T19:10:52.366Z,102737.38
2023-05-18T19:13:20.640Z,102748.56
2023-05-18T19:15:49.362Z,102740.56
2023-05-18T19:18:17.531Z,102745.06
2023-05-18T19:20:45.966Z,102743.06
2023-05-18T19:23:14.125Z,102747.75
2023-05-18T19:25:43.839Z,102744.06
2023-05-18T19:28:12.153Z,102745.22
2023-05-18T19:30:40.326Z,102749.59
2023-05-18T19:33:11.738Z,102751.56
2023-05-18T19:35:39.788Z,102759.25
2023-05-18T19:38:08.124Z,102759.25
2023-05-18T19:40:36.260Z,102753.41
2023-05-18T19:43:05.922Z,102755.44
2023-05-18T19:45:34.761Z,102765.44
2023-05-18T19:48:03.351Z,102762.94
2023-05-18T19:50:31.723Z,102764.97
2023-05-18T19:52:59.989Z,102763.44
2023-05-18T19:55:29.353Z,102772.63
2023-05-18T19:57:57.802Z,102776.28
2023-05-18T20:00:27.687Z,102777.47
2023-05-18T20:02:56.142Z,102777.47
2023-05-18T20:05:25.655Z,102785.81
2023-05-18T20:07:53.811Z,102783.50
2023-05-18T20:10:22.173Z,102787.31
2023-05-18T20:12:50.406Z,102789.16
2023-05-18T20:15:19.365Z,102790.31
2023-05-18T20:17:49.204Z,102794.97
2023-05-18T20:20:20.219Z,102787.81
2023-05-18T20:22:48.538Z,102786.47
2023-05-18T20:25:17.042Z,102795.16
2023-05-18T20:27:45.242Z,102796.00
2023-05-18T20:30:13.765Z,102795.66
2023-05-18T20:32:42.064Z,102792.66
2023-05-18T20:35:12.915Z,102803.66
2023-05-18T20:37:41.599Z,102804.13
2023-05-18T20:40:10.912Z,102795.97
2023-05-18T20:42:40.773Z,102798.59
2023-05-18T20:45:10.387Z,102806.72
2023-05-18T20:47:38.943Z,102804.56
2023-05-18T20:50:09.265Z,102809.22
2023-05-18T20:52:38.845Z,102807.06
2023-05-18T20:55:07.650Z,102806.41
2023-05-18T20:57:38.594Z,102807.53
2023-05-18T21:00:08.060Z,102814.53
2023-05-18T21:02:36.929Z,102813.88
2023-05-18T21:05:06.604Z,102808.88
2023-05-18T21:07:38.082Z,102814.53
2023-05-18T21:10:08.751Z,102819.19
2023-05-18T21:12:37.080Z,102812.19
2023-05-18T21:15:06.184Z,102817.53
2023-05-18T21:17:34.709Z,102814.16
2023-05-18T21:20:03.107Z,102815.84
2023-05-18T21:22:31.285Z,102824.69
2023-05-18T21:24:59.559Z,102815.66
2023-05-18T21:27:29.172Z,102814.81
2023-05-18T21:29:57.458Z,102815.66
2023-05-18T21:32:26.117Z,102818.31
2023-05-18T21:34:54.532Z,102817.47
2023-05-18T21:37:23.004Z,102816.13
2023-05-18T21:39:51.281Z,102809.13
2023-05-18T21:42:19.562Z,102804.50
2023-05-18T21:44:49.175Z,102811.63
2023-05-18T21:47:17.379Z,102817.44
2023-05-18T21:49:45.675Z,102810.16
2023-05-18T21:52:15.537Z,102810.47
2023-05-18T21:54:43.894Z,102810.47
2023-05-18T21:57:12.242Z,102806.31
2023-05-18T21:59:40.451Z,102813.28
2023-05-18T22:02:10.163Z,102811.28
2023-05-18T22:04:38.550Z,102819.44
2023-05-18T22:07:07.013Z,102817.31
2023-05-18T22:09:35.280Z,102811.81
2023-05-18T22:12:03.473Z,102818.78
2023-05-18T22:14:31.616Z,102818.31
2023-05-18T22:17:00.018Z,102814.94
2023-05-18T22:19:29.930Z,102813.59
2023-05-18T22:21:58.797Z,102818.44
2023-05-18T22:24:27.108Z,102822.41
2023-05-18T22:26:55.352Z,102819.41
2023-05-18T22:29:23.674Z,102821.09
2023-05-18T22:31:52.049Z,102819.28
2023-05-18T22:34:20.339Z,102823.25
2023-05-18T22:36:50.304Z,102816.75
2023-05-18T22:39:18.649Z,102812.59
2023-05-18T22:41:46.858Z,102817.09
2023-05-18T22:44:15.177Z,102817.56
2023-05-18T22:46:43.470Z,102815.72
2023-05-18T22:49:12.191Z,102818.41
2023-05-18T22:51:40.882Z,102820.88
2023-05-18T22:54:10.448Z,102820.88
2023-05-18T22:56:38.715Z,102815.56
2023-05-18T22:59:10.385Z,102816.56
2023-05-18T23:01:39.010Z,102820.53
2023-05-18T23:04:07.384Z,102822.53
2023-05-18T23:06:35.847Z,102831.13
2023-05-18T23:09:04.198Z,102834.97
2023-05-18T23:11:35.191Z,102824.09
2023-05-18T23:14:03.426Z,102825.75
2023-05-18T23:16:31.690Z,102826.03
2023-05-18T23:19:01.918Z,102819.19
2023-05-18T23:21:31.140Z,102828.78
2023-05-18T23:23:59.932Z,102826.59
2023-05-18T23:26:28.304Z,102821.78
2023-05-18T23:29:34.963Z,102815.94
2023-05-18T23:32:04.405Z,102820.06
2023-05-18T23:34:33.435Z,102817.06
2023-05-18T23:37:04.500Z,102811.38
2023-05-18T23:39:33.398Z,102813.84
2023-05-18T23:42:02.466Z,102805.50
2023-05-18T23:44:31.438Z,102812.66
2023-05-18T23:47:02.031Z,102811.38
2023-05-18T23:49:30.796Z,102807.53
2023-05-18T23:52:02.752Z,102813.56
2023-05-18T23:54:31.413Z,102817.06
2023-05-18T23:57:00.109Z,102819.72
2023-05-18T23:59:28.966Z,102819.00
